createdAt,value
2022-12-19T00:02:36.153Z,101901.84
2022-12-19T00:07:57.145Z,101858.97
2022-12-19T00:13:19.584Z,101861.50
2022-12-19T00:18:41.730Z,101851.44
2022-12-19T00:24:13.138Z,101837.91
2022-12-19T00:29:41.648Z,101852.44
2022-12-19T00:35:01.928Z,101836.53
2022-12-19T00:40:22.442Z,101843.50
2022-12-19T00:45:44.908Z,101828.59
2022-12-19T00:51:12.679Z,101803.66
2022-12-19T00:56:37.382Z,101797.31
2022-12-19T01:02:00.515Z,101781.59
2022-12-19T01:07:23.998Z,101776.72
2022-12-19T01:12:45.860Z,101796.13
2022-12-19T01:18:10.189Z,101806.25
2022-12-19T01:23:30.812Z,101789.69
2022-12-19T01:28:51.152Z,101764.88
2022-12-19T01:34:12.014Z,101786.81
2022-12-19T01:39:32.482Z,101771.00
2022-12-19T01:45:15.069Z,101781.19
2022-12-19T01:51:01.635Z,101742.69
2022-12-19T01:56:28.706Z,101737.88
2022-12-19T02:01:54.815Z,101729.72
2022-12-19T02:07:18.542Z,101709.69
2022-12-19T02:12:42.775Z,101722.41
2022-12-19T02:18:43.287Z,101717.56
2022-12-19T02:24:25.576Z,101695.81
2022-12-19T02:29:58.539Z,101690.81
2022-12-19T02:35:44.064Z,101682.47
2022-12-19T02:41:14.989Z,101677.59
2022-12-19T02:46:37.529Z,101660.06
2022-12-19T02:51:58.308Z,101673.47
2022-12-19T02:57:23.978Z,101665.91
2022-12-19T03:03:05.929Z,101654.16
2022-12-19T03:08:38.095Z,101639.22
2022-12-19T03:14:04.503Z,101635.75
2022-12-19T03:19:25.120Z,101606.28
2022-12-19T03:24:45.837Z,101602.19
2022-12-19T03:30:10.308Z,101596.94
2022-12-19T03:35:35.420Z,101593.44
2022-12-19T03:40:57.508Z,101601.84
2022-12-19T03:46:26.048Z,101596.91
2022-12-19T03:51:59.191Z,101603.63
2022-12-19T03:57:28.912Z,101603.75
2022-12-19T04:02:53.063Z,101593.13
2022-12-19T04:08:14.355Z,101555.34
2022-12-19T04:13:44.776Z,101556.09
2022-12-19T04:19:14.748Z,101544.34
2022-12-19T04:24:40.593Z,101532.63
2022-12-19T04:30:02.227Z,101523.34
2022-12-19T04:35:23.064Z,101508.25
2022-12-19T04:40:44.176Z,101507.50
2022-12-19T04:46:04.576Z,101508.50
2022-12-19T04:51:25.291Z,101502.69
2022-12-19T04:56:45.501Z,101498.72
2022-12-19T05:02:06.328Z,101500.38
2022-12-19T05:07:26.823Z,101486.97
2022-12-19T05:12:47.045Z,101474.44
2022-12-19T05:18:07.802Z,101461.81
2022-12-19T05:23:28.741Z,101472.75
2022-12-19T05:28:49.901Z,101454.56
2022-12-19T05:34:10.979Z,101441.31
2022-12-19T05:39:31.703Z,101438.00
2022-12-19T05:44:52.095Z,101431.31
2022-12-19T05:50:17.076Z,101418.91
2022-12-19T05:55:44.934Z,101409.34
2022-12-19T06:01:11.786Z,101410.97
2022-12-19T06:06:32.349Z,101404.28
2022-12-19T06:11:52.793Z,101389.84
2022-12-19T06:17:13.273Z,101367.03
2022-12-19T06:22:34.367Z,101373.66
2022-12-19T06:27:54.894Z,101358.53
2022-12-19T06:33:15.465Z,101349.25
2022-12-19T06:38:35.951Z,101342.53
2022-12-19T06:43:58.762Z,101352.63
2022-12-19T06:49:19.683Z,101333.44
2022-12-19T06:54:40.330Z,101310.06
2022-12-19T07:00:01.218Z,101323.72
2022-12-19T07:05:22.047Z,101307.00
2022-12-19T07:10:42.775Z,101290.38
2022-12-19T07:16:05.154Z,101294.78
2022-12-19T07:21:25.914Z,101292.38
2022-12-19T07:26:47.494Z,101299.28
2022-12-19T07:32:07.765Z,101285.06
2022-12-19T07:37:28.449Z,101281.75
2022-12-19T07:42:49.143Z,101270.81
2022-12-19T07:48:10.257Z,101254.09
2022-12-19T07:53:31.281Z,101249.06
2022-12-19T07:58:52.329Z,101259.38
2022-12-19T08:04:13.355Z,101268.00
2022-12-19T08:09:33.732Z,101250.47
2022-12-19T08:14:57.166Z,101263.97
2022-12-19T08:20:17.904Z,101254.13
2022-12-19T08:25:38.799Z,101274.53
2022-12-19T08:31:20.248Z,101248.53
2022-12-19T08:36:40.879Z,101243.69
2022-12-19T08:42:01.483Z,101224.41
2022-12-19T08:47:21.784Z,101225.41
2022-12-19T08:52:42.481Z,101232.25
2022-12-19T08:58:03.038Z,101249.13
2022-12-19T09:03:24.020Z,101234.91
2022-12-19T09:08:46.858Z,101223.19
2022-12-19T09:14:07.829Z,101214.88
2022-12-19T09:19:28.683Z,101214.22
2022-12-19T09:24:49.654Z,101191.84
2022-12-19T09:30:12.706Z,101198.03
2022-12-19T09:35:33.265Z,101197.84
2022-12-19T09:40:57.918Z,101191.53
2022-12-19T09:46:20.587Z,101180.63
2022-12-19T09:51:49.278Z,101167.16
2022-12-19T09:57:17.816Z,101167.31
2022-12-19T10:02:50.779Z,101167.41
2022-12-19T10:08:18.648Z,101171.75
2022-12-19T10:13:51.528Z,101170.22
2022-12-19T10:19:27.535Z,101162.75
2022-12-19T10:25:15.957Z,101163.56
2022-12-19T10:30:44.775Z,101156.00
2022-12-19T10:36:10.777Z,101164.50
2022-12-19T10:41:32.764Z,101145.22
2022-12-19T10:46:55.097Z,101124.22
2022-12-19T10:52:16.138Z,101131.13
2022-12-19T10:57:36.801Z,101115.09
2022-12-19T11:03:13.695Z,101115.03
2022-12-19T11:08:39.660Z,101110.94
2022-12-19T11:18:54.283Z,101113.50
2022-12-19T11:29:27.583Z,101105.06
2022-12-19T11:30:08.657Z,101111.91
2022-12-19T11:37:16.306Z,101075.75
2022-12-19T11:43:10.915Z,101068.19
2022-12-19T11:48:41.979Z,101068.94
2022-12-19T11:54:22.217Z,101078.09
2022-12-19T11:59:42.793Z,101083.19
2022-12-19T12:05:33.408Z,101084.94
2022-12-19T12:17:03.679Z,101079.09
2022-12-19T12:31:00.949Z,101073.34
2022-12-19T12:31:46.583Z,101062.63
2022-12-19T12:32:02.752Z,101044.94
2022-12-19T12:41:06.734Z,101044.97
2022-12-19T12:46:34.849Z,101040.25
2022-12-19T12:51:55.997Z,101029.44
2022-12-19T12:57:20.616Z,101027.00
2022-12-19T13:02:46.482Z,101040.06
2022-12-19T13:08:45.368Z,101026.31
2022-12-19T13:14:34.428Z,101010.56
2022-12-19T13:19:58.123Z,101020.00
2022-12-19T13:25:27.315Z,101008.16
2022-12-19T13:31:19.771Z,101011.56
2022-12-19T13:39:51.157Z,101020.09
2022-12-19T13:42:55.519Z,101011.59
2022-12-19T13:48:40.317Z,101004.81
2022-12-19T13:54:01.210Z,100998.03
2022-12-19T13:59:24.962Z,101013.31
2022-12-19T14:04:45.822Z,101012.50
2022-12-19T14:11:37.744Z,101003.16
2022-12-19T14:16:00.558Z,100993.03
2022-12-19T14:22:08.919Z,100989.63
2022-12-19T14:28:20.372Z,100977.72
2022-12-19T14:33:39.297Z,100964.19
2022-12-19T14:39:24.703Z,100982.84
2022-12-19T14:52:11.542Z,100977.75
2022-12-19T14:54:23.273Z,100982.03
2022-12-19T14:56:52.075Z,100971.84
2022-12-19T15:02:05.739Z,100968.44
2022-12-19T15:07:31.873Z,100944.69
2022-12-19T15:14:50.872Z,100967.63
2022-12-19T15:19:01.881Z,100960.00
2022-12-19T15:24:22.348Z,100960.84
2022-12-19T15:29:44.262Z,100950.69
2022-12-19T15:35:17.305Z,100960.00
2022-12-19T15:40:40.502Z,100952.34
2022-12-19T15:46:01.364Z,100947.25
2022-12-19T15:51:22.034Z,100931.13
2022-12-19T15:56:46.725Z,100931.13
2022-12-19T16:02:20.247Z,100922.66
2022-12-19T16:07:40.793Z,100931.13
2022-12-19T16:13:01.601Z,100913.31
2022-12-19T16:18:22.212Z,100922.66
2022-12-19T16:23:43.051Z,100921.81
2022-12-19T16:29:04.850Z,100915.88
2022-12-19T16:34:25.521Z,100914.97
2022-12-19T16:39:46.146Z,100934.53
2022-12-19T16:45:23.516Z,100898.88
2022-12-19T16:50:44.355Z,100909.06
2022-12-19T16:56:20.810Z,100903.09
2022-12-19T17:01:44.005Z,100909.03
2022-12-19T17:07:10.125Z,100904.81
2022-12-19T17:12:30.612Z,100906.53
2022-12-19T17:17:53.107Z,100902.25
2022-12-19T17:23:22.471Z,100910.75
2022-12-19T17:28:43.020Z,100901.41
2022-12-19T17:34:06.465Z,100915.88
2022-12-19T17:39:29.232Z,100898.03
2022-12-19T17:44:50.274Z,100884.44
2022-12-19T17:50:23.653Z,100887.84
2022-12-19T17:55:44.194Z,100892.06
2022-12-19T18:01:04.514Z,100900.59
2022-12-19T18:06:25.255Z,100892.91
2022-12-19T18:11:47.449Z,100894.63
2022-12-19T18:17:11.770Z,100885.28
2022-12-19T18:22:32.234Z,100884.44
2022-12-19T18:27:53.155Z,100895.50
2022-12-19T18:33:21.355Z,100898.91
2022-12-19T18:38:42.272Z,100894.66
2022-12-19T18:44:03.023Z,100894.66
2022-12-19T18:49:23.657Z,100901.44
2022-12-19T18:54:44.341Z,100903.13
2022-12-19T19:00:05.614Z,100886.13
2022-12-19T19:05:29.061Z,100894.63
2022-12-19T19:10:50.927Z,100892.91
2022-12-19T19:16:22.377Z,100893.72
2022-12-19T19:21:42.722Z,100905.63
2022-12-19T19:27:03.666Z,100903.09
2022-12-19T19:32:25.791Z,100892.91
2022-12-19T19:37:50.069Z,100881.00
2022-12-19T19:43:10.947Z,100902.22
2022-12-19T19:48:31.631Z,100888.69
2022-12-19T19:53:52.072Z,100899.69
2022-12-19T19:59:12.543Z,100897.16
2022-12-19T20:04:33.197Z,100894.59
2022-12-19T20:09:53.897Z,100902.22
2022-12-19T20:15:14.691Z,100919.25
2022-12-19T20:20:35.461Z,100920.09
2022-12-19T20:26:00.881Z,100911.56
2022-12-19T20:31:23.695Z,100916.66
2022-12-19T20:36:44.346Z,100931.97
2022-12-19T20:42:06.528Z,100915.81
2022-12-19T20:47:27.157Z,100909.88
2022-12-19T20:52:47.611Z,100910.72
2022-12-19T20:58:08.246Z,100920.09
2022-12-19T21:03:30.231Z,100930.28
2022-12-19T21:08:51.440Z,100914.97
2022-12-19T21:14:12.472Z,100916.69
2022-12-19T21:19:33.444Z,100947.28
2022-12-19T21:24:53.961Z,100913.28
2022-12-19T21:30:15.544Z,100906.47
2022-12-19T21:35:38.138Z,100905.63
2022-12-19T21:41:02.575Z,100921.78
2022-12-19T21:46:25.312Z,100893.72
2022-12-19T21:51:45.645Z,100897.13
2022-12-19T21:57:06.270Z,100904.72
2022-12-19T22:02:27.068Z,100898.78
2022-12-19T22:07:47.930Z,100888.59
2022-12-19T22:13:08.645Z,100903.03
2022-12-19T22:18:29.252Z,100897.09
2022-12-19T22:23:50.546Z,100886.03
2022-12-19T22:29:16.468Z,100891.16
2022-12-19T22:34:37.499Z,100898.81
2022-12-19T22:40:00.220Z,100885.22
2022-12-19T22:45:21.013Z,100898.81
2022-12-19T22:50:46.932Z,100885.22
2022-12-19T22:56:12.917Z,100886.88
2022-12-19T23:01:39.499Z,100894.53
2022-12-19T23:07:00.285Z,100903.03
2022-12-19T23:12:20.820Z,100891.13
2022-12-19T23:17:41.519Z,100896.19
2022-12-19T23:23:02.045Z,100907.22
2022-12-19T23:28:22.363Z,100912.31
2022-12-19T23:33:43.083Z,100913.16
2022-12-19T23:39:04.214Z,100901.28
2022-12-19T23:44:24.603Z,100909.78
2022-12-19T23:49:45.118Z,100888.50
2022-12-19T23:55:06.512Z,100903.78
